Time;durP1;ratioP1;P1;durP2;ratioP2;P2;SDS_P1;SDS_P2;PMS_P1;PMS_P2;Temp;Humidity;BMP_temperature;BMP_pressure;BME280_temperature;BME280_humidity;BME280_pressure;Samples;Min_cycle;Max_cycle;Signal;HPM_P1;HPM_P2
2021/12/22 00:01:52;;;;;;;32.33;13.93;;;;;;;-2.99;nan;101592.13;5036355;28;20530;-71
2021/12/22 00:04:44;;;;;;;24.20;12.20;;;;;;;-3.20;nan;101576.41;5034783;28;20507;-70
2021/12/22 00:07:29;;;;;;;32.65;14.65;;;;;;;-3.12;nan;101586.19;5039506;28;20037;-71
2021/12/22 00:10:18;;;;;;;32.78;14.32;;;;;;;-3.15;nan;101600.09;5048388;28;20120;-70
2021/12/22 00:13:03;;;;;;;33.72;13.98;;;;;;;-3.18;nan;101605.47;5051601;28;20025;-70
2021/12/22 00:15:49;;;;;;;30.05;13.18;;;;;;;-3.25;nan;101597.34;5051731;28;20037;-70
2021/12/22 00:18:35;;;;;;;34.03;15.10;;;;;;;-3.27;nan;101601.75;5051725;28;20025;-70
2021/12/22 00:21:21;;;;;;;35.00;14.27;;;;;;;-3.22;nan;101602.25;5047100;28;20412;-70
2021/12/22 00:24:07;;;;;;;35.92;15.30;;;;;;;-3.23;nan;101600.63;5046205;28;20041;-70
2021/12/22 00:26:53;;;;;;;38.53;15.38;;;;;;;-3.27;nan;101588.06;5052362;28;20044;-70
2021/12/22 00:29:39;;;;;;;37.15;15.25;;;;;;;-3.44;nan;101556.56;5046597;28;20100;-70
2021/12/22 00:32:27;;;;;;;35.55;15.85;;;;;;;-3.23;nan;101592.91;5047306;28;20024;-70
2021/12/22 00:35:13;;;;;;;32.58;14.57;;;;;;;-3.10;nan;101612.66;5053293;28;20040;-70
2021/12/22 00:37:58;;;;;;;35.20;15.40;;;;;;;-3.12;nan;101610.19;5041577;28;20026;-70
2021/12/22 00:40:45;;;;;;;34.22;14.95;;;;;;;-3.10;nan;101610.09;5043287;28;20037;-70
2021/12/22 00:43:31;;;;;;;38.05;16.27;;;;;;;-3.06;nan;101614.94;5034086;28;20044;-70
2021/12/22 00:46:17;;;;;;;34.92;15.30;;;;;;;-3.06;nan;101624.41;5045662;28;20511;-69
2021/12/22 00:49:02;;;;;;;34.72;15.40;;;;;;;-3.09;nan;101611.72;5049775;28;20474;-70
2021/12/22 00:51:48;;;;;;;33.25;15.30;;;;;;;-3.06;nan;101619.25;5041124;28;20033;-69
2021/12/22 00:54:34;;;;;;;37.33;15.32;;;;;;;-3.08;nan;101621.94;5046394;28;20067;-70
2021/12/22 00:57:20;;;;;;;31.02;14.90;;;;;;;-3.06;nan;101622.66;5051344;28;20111;-70
2021/12/22 01:00:07;;;;;;;32.97;14.27;;;;;;;-3.04;nan;101625.09;5038467;28;20036;-70
2021/12/22 01:02:54;;;;;;;37.80;15.45;;;;;;;-3.32;nan;101579.84;5027064;28;20045;-70
2021/12/22 01:05:40;;;;;;;31.13;14.35;;;;;;;-3.06;nan;101627.00;5045854;28;20034;-69
2021/12/22 01:08:25;;;;;;;34.05;14.95;;;;;;;-3.10;nan;101622.97;5049288;28;20029;-69
2021/12/22 01:11:11;;;;;;;38.30;16.20;;;;;;;-3.14;nan;101639.56;5050076;28;20039;-70
2021/12/22 01:13:57;;;;;;;36.88;15.73;;;;;;;-3.17;nan;101635.44;5032530;28;20410;-70
2021/12/22 01:16:47;;;;;;;38.67;17.17;;;;;;;-3.25;nan;101630.00;5050567;28;20403;-70
2021/12/22 01:20:00;;;;;;;37.22;16.08;;;;;;;-3.23;nan;101633.31;5051318;28;20040;-70
2021/12/22 01:22:48;;;;;;;38.20;15.23;;;;;;;-3.25;nan;101635.97;5045141;28;20143;-69
2021/12/22 01:25:41;;;;;;;36.90;15.15;;;;;;;-3.25;nan;101632.56;5032676;28;20041;-70
2021/12/22 01:28:27;;;;;;;36.20;15.82;;;;;;;-3.22;nan;101640.09;5033869;28;20041;-70
2021/12/22 01:31:14;;;;;;;35.92;14.80;;;;;;;-3.32;nan;101624.44;5037976;28;20175;-68
2021/12/22 01:34:00;;;;;;;40.25;14.75;;;;;;;-3.20;nan;101648.53;5036522;28;20075;-68
2021/12/22 01:36:46;;;;;;;34.88;15.95;;;;;;;-3.33;nan;101616.81;5042832;28;20110;-68
2021/12/22 01:39:32;;;;;;;35.72;16.35;;;;;;;-3.47;nan;101595.41;5049495;28;20402;-68
2021/12/22 01:42:18;;;;;;;36.15;15.63;;;;;;;-3.29;nan;101633.69;5047953;28;20550;-68
2021/12/22 01:45:46;;;;;;;37.25;15.93;;;;;;;-3.32;nan;101621.84;5064854;28;20116;-68
2021/12/22 01:52:00;;;;;;;39.03;16.10;;;;;;;-3.31;nan;101627.81;5032686;28;20030;-69
2021/12/22 01:55:03;;;;;;;36.30;15.32;;;;;;;-3.24;nan;101634.22;5039879;28;20515;-69
2021/12/22 01:57:49;;;;;;;32.97;15.32;;;;;;;-3.35;nan;101619.50;5041520;28;20080;-68
2021/12/22 02:00:35;;;;;;;35.13;16.27;;;;;;;-3.25;nan;101624.84;5047407;28;20037;-68
2021/12/22 02:03:21;;;;;;;38.85;15.70;;;;;;;-3.25;nan;101619.69;5048695;28;20572;-69
2021/12/22 02:06:08;;;;;;;37.70;15.85;;;;;;;-3.19;nan;101629.56;5050601;28;20033;-68
2021/12/22 02:08:55;;;;;;;34.72;15.77;;;;;;;-3.24;nan;101614.41;5049974;28;20037;-68
2021/12/22 02:11:41;;;;;;;37.67;16.13;;;;;;;-3.27;nan;101609.47;5058382;28;20033;-68
2021/12/22 02:14:26;;;;;;;40.38;16.10;;;;;;;-3.20;nan;101617.63;5057205;28;20107;-68
2021/12/22 02:17:13;;;;;;;38.92;14.85;;;;;;;-3.28;nan;101615.59;5039874;28;20111;-68
2021/12/22 02:19:59;;;;;;;33.67;14.65;;;;;;;-3.21;nan;101623.69;5044110;28;20034;-68
2021/12/22 02:22:45;;;;;;;38.38;16.27;;;;;;;-3.21;nan;101627.13;5051253;28;20047;-69
2021/12/22 02:25:36;;;;;;;35.40;16.17;;;;;;;-3.37;nan;101605.91;5056902;28;20095;-68
2021/12/22 02:28:27;;;;;;;35.92;15.43;;;;;;;-3.32;nan;101616.72;5047349;28;20033;-68
2021/12/22 02:31:15;;;;;;;37.72;16.02;;;;;;;-3.31;nan;101620.91;5051587;28;20384;-68
2021/12/22 02:34:01;;;;;;;39.13;16.70;;;;;;;-3.39;nan;101619.81;5039443;28;20064;-68
2021/12/22 02:36:47;;;;;;;41.33;17.13;;;;;;;-3.64;nan;101577.66;5042959;28;20090;-67
2021/12/22 02:39:32;;;;;;;37.50;16.63;;;;;;;-3.43;nan;101611.44;5037519;28;20029;-68
2021/12/22 02:42:21;;;;;;;42.28;17.13;;;;;;;-3.47;nan;101600.56;5045362;28;20064;-68
2021/12/22 02:45:13;;;;;;;37.73;15.83;;;;;;;-3.35;nan;101621.22;5040583;28;20064;-68
2021/12/22 02:47:58;;;;;;;39.10;16.83;;;;;;;-3.35;nan;101616.94;5037908;28;20049;-68
2021/12/22 02:50:45;;;;;;;38.22;17.08;;;;;;;-3.32;nan;101623.63;5047001;28;20037;-68
2021/12/22 02:54:04;;;;;;;41.15;17.55;;;;;;;-3.32;nan;101628.78;5056386;28;20032;-68
2021/12/22 02:57:18;;;;;;;42.55;17.35;;;;;;;-3.31;nan;101625.25;5038574;28;20041;-69
2021/12/22 03:06:14;;;;;;;44.92;17.73;;;;;;;-3.34;nan;101608.25;5015868;28;20038;-68
2021/12/22 03:09:14;;;;;;;41.40;17.45;;;;;;;-3.40;nan;101594.97;5014893;28;20579;-68
2021/12/22 03:12:03;;;;;;;40.75;18.15;;;;;;;-3.29;nan;101613.09;5015177;28;20072;-68
2021/12/22 03:14:49;;;;;;;40.67;17.67;;;;;;;-3.26;nan;101610.31;5001837;28;20030;-68
2021/12/22 03:17:38;;;;;;;42.10;18.27;;;;;;;-3.24;nan;101614.41;5011078;28;20044;-69
2021/12/22 03:20:24;;;;;;;40.80;18.10;;;;;;;-3.27;nan;101596.59;5014829;28;20040;-69
2021/12/22 03:23:10;;;;;;;43.67;17.70;;;;;;;-3.19;nan;101614.09;5012486;28;20112;-68
2021/12/22 03:25:57;;;;;;;45.67;18.60;;;;;;;-3.15;nan;101617.31;5010121;28;20049;-68
2021/12/22 03:28:45;;;;;;;47.03;18.83;;;;;;;-3.11;nan;101618.72;5012325;28;20084;-69
2021/12/22 03:31:31;;;;;;;38.83;17.00;;;;;;;-3.10;nan;101612.66;4999473;28;20141;-68
2021/12/22 03:34:17;;;;;;;35.80;16.92;;;;;;;-3.17;nan;101601.94;5012586;28;20040;-68
2021/12/22 03:37:04;;;;;;;40.15;17.30;;;;;;;-3.12;nan;101609.38;5012912;28;20030;-68
2021/12/22 03:39:50;;;;;;;40.20;17.73;;;;;;;-3.11;nan;101598.97;5028270;28;20028;-68
2021/12/22 03:42:35;;;;;;;41.22;17.95;;;;;;;-3.07;nan;101615.00;5050100;28;20523;-68
2021/12/22 03:45:22;;;;;;;37.15;17.60;;;;;;;-3.07;nan;101613.25;5039231;28;20092;-69
2021/12/22 03:48:07;;;;;;;34.30;16.67;;;;;;;-3.15;nan;101599.28;5052931;28;20041;-68
2021/12/22 03:50:53;;;;;;;36.63;16.58;;;;;;;-3.14;nan;101604.31;5052773;28;20115;-68
2021/12/22 03:53:39;;;;;;;38.03;16.85;;;;;;;-3.04;nan;101618.22;5054427;28;20957;-69
2021/12/22 03:56:25;;;;;;;37.75;16.95;;;;;;;-3.04;nan;101627.69;5052687;28;20075;-68
2021/12/22 03:59:10;;;;;;;40.33;17.40;;;;;;;-3.07;nan;101627.91;5052669;28;20407;-69
2021/12/22 04:01:56;;;;;;;39.50;16.63;;;;;;;-3.06;nan;101624.41;5065428;28;20111;-68
2021/12/22 04:04:44;;;;;;;39.08;16.65;;;;;;;-3.32;nan;101590.94;5053838;28;20067;-68
2021/12/22 04:07:31;;;;;;;37.25;16.17;;;;;;;-3.06;nan;101630.38;5052029;28;20112;-68
2021/12/22 04:10:22;;;;;;;41.60;15.50;;;;;;;-3.08;nan;101629.66;5052081;28;20037;-68
2021/12/22 04:13:09;;;;;;;33.92;15.60;;;;;;;-3.12;nan;101624.81;5039262;28;20044;-69
2021/12/22 04:15:54;;;;;;;38.17;16.77;;;;;;;-3.12;nan;101623.06;5048004;28;20037;-70
2021/12/22 04:18:40;;;;;;;34.40;15.40;;;;;;;-3.28;nan;101610.44;5036284;28;20030;-70
2021/12/22 04:21:26;;;;;;;37.50;15.80;;;;;;;-3.30;nan;101607.13;5037466;28;20091;-70
2021/12/22 04:24:12;;;;;;;34.58;16.08;;;;;;;-3.21;nan;101629.69;5041661;28;20466;-70
2021/12/22 04:26:58;;;;;;;35.88;16.88;;;;;;;-3.23;nan;101634.13;5042255;28;20049;-70
2021/12/22 04:29:43;;;;;;;35.38;16.65;;;;;;;-3.24;nan;101627.31;5033456;28;20034;-69
2021/12/22 04:32:29;;;;;;;36.65;16.67;;;;;;;-3.25;nan;101625.66;5038605;28;20036;-70
2021/12/22 04:35:16;;;;;;;36.90;16.40;;;;;;;-3.23;nan;101628.97;5051945;28;20068;-70
2021/12/22 04:38:02;;;;;;;39.50;16.45;;;;;;;-3.23;nan;101633.31;5040466;28;20402;-70
2021/12/22 04:40:48;;;;;;;37.20;16.73;;;;;;;-3.24;nan;101636.78;5039987;28;20094;-71
2021/12/22 04:43:34;;;;;;;37.08;16.70;;;;;;;-3.25;nan;101640.31;5050949;28;20139;-70
2021/12/22 04:46:21;;;;;;;34.15;16.20;;;;;;;-3.23;nan;101654.72;5051182;28;20032;-70
2021/12/22 04:49:07;;;;;;;40.30;16.98;;;;;;;-3.29;nan;101633.69;5053832;28;20033;-70
2021/12/22 04:51:54;;;;;;;35.90;16.33;;;;;;;-3.23;nan;101644.41;5051834;28;20064;-70
2021/12/22 04:54:51;;;;;;;37.78;17.20;;;;;;;-3.35;nan;101629.81;5049183;28;20086;-70
2021/12/22 04:57:37;;;;;;;39.45;17.38;;;;;;;-3.31;nan;101644.09;5041625;28;20049;-70
2021/12/22 05:00:26;;;;;;;42.25;19.30;;;;;;;-3.31;nan;101641.53;5036434;28;20411;-71
2021/12/22 05:03:12;;;;;;;49.85;19.42;;;;;;;-3.41;nan;101632.78;5039646;28;20069;-69
2021/12/22 05:05:58;;;;;;;45.28;17.85;;;;;;;-3.50;nan;101625.66;5041885;28;20076;-69
2021/12/22 05:08:43;;;;;;;40.33;16.95;;;;;;;-3.50;nan;101634.22;5037983;28;20041;-69
2021/12/22 05:11:29;;;;;;;38.35;16.60;;;;;;;-3.70;nan;101609.81;5042026;28;20036;-77
2021/12/22 05:14:15;;;;;;;40.80;18.00;;;;;;;-3.54;nan;101632.78;5040245;28;20715;-75
2021/12/22 05:17:01;;;;;;;40.92;16.85;;;;;;;-3.51;nan;101632.56;5055296;28;20039;-75
2021/12/22 05:19:47;;;;;;;36.17;16.75;;;;;;;-3.44;nan;101643.28;5047352;28;20059;-75
2021/12/22 05:22:33;;;;;;;34.00;15.43;;;;;;;-3.46;nan;101643.38;5045700;28;20499;-75
2021/12/22 05:25:19;;;;;;;35.50;16.25;;;;;;;-3.45;nan;101650.19;5039739;28;20034;-75
2021/12/22 05:28:05;;;;;;;37.05;15.50;;;;;;;-3.46;nan;101650.28;5042997;28;20418;-75
2021/12/22 05:30:51;;;;;;;39.20;16.98;;;;;;;-3.46;nan;101652.88;5041568;28;20116;-75
2021/12/22 05:33:36;;;;;;;44.10;16.50;;;;;;;-3.49;nan;101637.63;5042931;28;20579;-76
2021/12/22 05:36:22;;;;;;;43.75;16.77;;;;;;;-3.33;nan;101663.16;5046233;28;20036;-74
2021/12/22 05:39:08;;;;;;;38.67;17.10;;;;;;;-3.50;nan;101654.81;5047591;28;20072;-74
2021/12/22 05:41:55;;;;;;;36.85;17.17;;;;;;;-3.51;nan;101653.19;5040261;28;20086;-75
2021/12/22 05:44:42;;;;;;;46.53;16.55;;;;;;;-3.54;nan;101658.53;5048030;28;20030;-74
2021/12/22 05:47:27;;;;;;;40.35;17.00;;;;;;;-3.57;nan;101656.13;5044983;28;20128;-75
2021/12/22 05:50:13;;;;;;;40.60;18.23;;;;;;;-3.50;nan;101679.75;5046288;28;20029;-74
2021/12/22 05:52:59;;;;;;;46.13;20.10;;;;;;;-3.52;nan;101676.44;5045682;28;20407;-75
2021/12/22 05:55:45;;;;;;;47.58;19.42;;;;;;;-3.52;nan;101674.72;5035020;28;20534;-75
2021/12/22 05:58:31;;;;;;;46.00;19.23;;;;;;;-3.58;nan;101661.41;5042505;28;20123;-75
2021/12/22 06:01:17;;;;;;;46.10;20.13;;;;;;;-3.44;nan;101687.06;5049213;28;20555;-75
2021/12/22 06:04:03;;;;;;;41.25;18.17;;;;;;;-3.41;nan;101689.44;5044858;28;20047;-75
2021/12/22 06:06:49;;;;;;;49.83;19.83;;;;;;;-3.44;nan;101684.50;5049929;28;20033;-75
2021/12/22 06:09:35;;;;;;;41.25;18.30;;;;;;;-3.47;nan;101680.38;5051537;28;20518;-75
2021/12/22 06:12:20;;;;;;;41.20;17.95;;;;;;;-3.56;nan;101677.59;5053182;28;20121;-74
2021/12/22 06:15:06;;;;;;;42.42;18.27;;;;;;;-3.57;nan;101681.88;5047874;28;20068;-74
2021/12/22 06:17:56;;;;;;;47.60;20.00;;;;;;;-3.52;nan;101690.16;5032793;28;20112;-75
2021/12/22 06:20:41;;;;;;;43.35;20.98;;;;;;;-3.55;nan;101707.53;5046284;28;20075;-75
2021/12/22 06:23:27;;;;;;;49.20;21.83;;;;;;;-3.67;nan;101707.41;5044997;28;20045;-76
2021/12/22 06:26:13;;;;;;;100.57;40.45;;;;;;;-3.68;nan;101716.06;5043319;28;20029;-74
2021/12/22 06:28:59;;;;;;;127.93;51.38;;;;;;;-3.71;nan;101724.00;5043204;28;20029;-76
2021/12/22 06:31:45;;;;;;;218.07;73.72;;;;;;;-3.73;nan;101717.31;5037550;28;20037;-77
2021/12/22 06:34:31;;;;;;;242.13;80.47;;;;;;;-3.86;nan;101712.09;5035261;28;20064;-75
2021/12/22 06:37:17;;;;;;;228.20;75.78;;;;;;;-4.08;nan;101685.19;5048032;28;20095;-75
2021/12/22 06:40:05;;;;;;;204.63;69.90;;;;;;;-3.77;nan;101726.13;5052383;28;20398;-74
2021/12/22 06:42:51;;;;;;;175.67;65.93;;;;;;;-3.88;nan;101707.06;5048412;28;20090;-74
2021/12/22 06:45:37;;;;;;;163.23;60.50;;;;;;;-3.90;nan;101706.34;5045763;28;20034;-75
2021/12/22 06:48:22;;;;;;;150.65;56.00;;;;;;;-3.79;nan;101720.25;5037483;28;20534;-74
2021/12/22 06:51:08;;;;;;;152.65;56.90;;;;;;;-3.68;nan;101725.56;5032161;28;20045;-75
2021/12/22 06:53:54;;;;;;;133.50;50.95;;;;;;;-3.69;nan;101722.16;5034231;28;20041;-75
2021/12/22 06:56:40;;;;;;;120.60;45.88;;;;;;;-3.61;nan;101742.25;5039718;28;20052;-75
2021/12/22 06:59:26;;;;;;;118.93;44.40;;;;;;;-3.66;nan;101737.41;5042900;28;20038;-76
2021/12/22 07:02:12;;;;;;;112.70;41.92;;;;;;;-3.64;nan;101748.41;5040755;28;20053;-76
2021/12/22 07:04:57;;;;;;;109.13;39.22;;;;;;;-3.63;nan;101757.78;5034255;28;20041;-75
2021/12/22 07:07:43;;;;;;;98.72;39.15;;;;;;;-3.72;nan;101737.78;5035869;28;20044;-76
2021/12/22 07:10:29;;;;;;;98.22;38.67;;;;;;;-3.62;nan;101756.03;5042157;28;20045;-75
2021/12/22 07:13:15;;;;;;;92.00;37.97;;;;;;;-3.54;nan;101761.53;5045186;28;20119;-76
2021/12/22 07:16:01;;;;;;;94.82;39.70;;;;;;;-3.50;nan;101764.72;5042701;28;20037;-76
2021/12/22 07:18:46;;;;;;;99.18;42.88;;;;;;;-3.51;nan;101755.34;5039293;28;20041;-75
2021/12/22 07:21:32;;;;;;;109.75;44.33;;;;;;;-3.39;nan;101764.03;5051913;28;20105;-76
2021/12/22 07:24:22;;;;;;;115.93;49.00;;;;;;;-3.45;nan;101753.19;5044860;28;20064;-74
2021/12/22 07:27:08;;;;;;;103.55;44.15;;;;;;;-3.38;nan;101763.91;5054824;28;20514;-72
2021/12/22 07:29:53;;;;;;;97.35;40.60;;;;;;;-3.43;nan;101750.50;5035789;28;20041;-72
2021/12/22 07:32:39;;;;;;;95.63;40.42;;;;;;;-3.33;nan;101758.47;5036842;28;20033;-75
2021/12/22 07:35:41;;;;;;;108.35;42.90;;;;;;;-3.26;nan;101777.72;5039894;28;20045;-72
2021/12/22 07:38:33;;;;;;;99.88;41.17;;;;;;;-3.21;nan;101778.25;5052146;28;20036;-73
2021/12/22 07:41:19;;;;;;;105.07;43.35;;;;;;;-3.27;nan;101761.47;5039944;28;20071;-73
2021/12/22 07:44:05;;;;;;;113.00;45.17;;;;;;;-3.16;nan;101765.06;5034607;28;20101;-72
2021/12/22 07:46:51;;;;;;;102.85;43.75;;;;;;;-3.11;nan;101771.59;5037758;28;20029;-73
2021/12/22 07:49:36;;;;;;;107.65;43.10;;;;;;;-3.01;nan;101762.31;5044380;28;20044;-72
2021/12/22 07:52:26;;;;;;;94.60;40.70;;;;;;;-2.95;nan;101763.63;5034978;28;20041;-73
2021/12/22 07:55:12;;;;;;;104.22;42.50;;;;;;;-2.75;nan;101776.94;5049864;28;20558;-71
2021/12/22 07:57:58;;;;;;;97.70;41.85;;;;;;;-2.76;nan;101777.88;5044995;28;20127;-73
2021/12/22 08:00:43;;;;;;;107.90;43.95;;;;;;;-2.74;nan;101773.44;5053915;28;20067;-72
2021/12/22 08:03:29;;;;;;;106.88;45.47;;;;;;;-2.61;nan;101782.81;5044886;28;20726;-72
2021/12/22 08:06:15;;;;;;;104.85;43.08;;;;;;;-2.45;nan;101789.50;5036149;28;20063;-73
2021/12/22 08:09:01;;;;;;;112.28;45.58;;;;;;;-2.53;nan;101771.97;5040542;28;20380;-72
2021/12/22 08:11:46;;;;;;;110.93;46.30;;;;;;;-2.33;nan;101787.81;5043844;28;20103;-73
2021/12/22 08:14:34;;;;;;;115.00;47.20;;;;;;;-2.24;nan;101789.78;5046993;28;20041;-73
2021/12/22 08:17:20;;;;;;;115.50;47.63;;;;;;;-2.22;nan;101770.66;5047301;28;20044;-73
2021/12/22 08:20:06;;;;;;;120.82;50.58;;;;;;;-2.01;nan;101783.81;5035835;28;20037;-73
2021/12/22 08:22:53;;;;;;;124.15;51.35;;;;;;;-1.84;nan;101784.38;5039114;28;20041;-73
2021/12/22 08:25:42;;;;;;;124.95;50.67;;;;;;;-1.75;nan;101783.69;5042563;28;20043;-71
2021/12/22 08:28:28;;;;;;;144.05;58.72;;;;;;;-1.58;nan;101785.06;5041149;28;20052;-73
2021/12/22 08:31:13;;;;;;;364.70;111.80;;;;;;;-1.40;nan;101788.09;5049905;28;20052;-72
2021/12/22 08:33:59;;;;;;;369.65;122.20;;;;;;;-1.12;nan;101779.94;5051320;28;20087;-73
2021/12/22 08:39:50;;;;;;;153.07;63.40;;;;;;;-0.67;nan;101802.44;5051840;28;20040;-73
2021/12/22 08:42:37;;;;;;;126.45;53.08;;;;;;;-0.74;nan;101788.31;5050643;28;20498;-74
2021/12/22 08:45:23;;;;;;;109.55;48.40;;;;;;;-0.60;nan;101806.19;5051391;28;20075;-73
2021/12/22 08:48:08;;;;;;;102.05;43.75;;;;;;;-0.54;nan;101803.16;5050701;28;20072;-72
2021/12/22 08:50:54;;;;;;;108.65;45.15;;;;;;;-0.41;nan;101810.78;5051391;28;20045;-75
2021/12/22 08:53:41;;;;;;;105.53;44.05;;;;;;;-0.33;nan;101808.44;5051842;28;20041;-77
2021/12/22 08:56:28;;;;;;;101.35;41.70;;;;;;;-0.45;nan;101786.09;5045803;28;20033;-75
2021/12/22 08:59:15;;;;;;;88.20;36.83;;;;;;;-0.21;nan;101811.84;5049064;28;20029;-76
2021/12/22 09:02:02;;;;;;;81.53;37.63;;;;;;;-0.06;nan;101817.59;5066983;28;20060;-76
2021/12/22 09:04:48;;;;;;;87.28;39.25;;;;;;;-0.04;nan;101810.53;5049811;28;20041;-76
2021/12/22 09:07:34;;;;;;;81.18;36.95;;;;;;;-0.06;nan;101807.22;5048959;28;20380;-76
2021/12/22 09:10:19;;;;;;;87.85;39.00;;;;;;;-0.03;nan;101819.94;5035579;28;20034;-76
2021/12/22 09:13:05;;;;;;;91.70;38.40;;;;;;;-0.03;nan;101814.75;5067132;28;20037;-75
2021/12/22 09:15:54;;;;;;;89.90;37.58;;;;;;;0.02;nan;101819.56;5051781;28;20091;-76
2021/12/22 09:18:43;;;;;;;82.97;36.67;;;;;;;0.04;nan;101822.88;5035708;28;20037;-76
2021/12/22 09:21:29;;;;;;;85.80;37.30;;;;;;;0.05;nan;101815.00;5051036;28;20495;-72
2021/12/22 09:24:15;;;;;;;80.30;37.78;;;;;;;0.06;nan;101805.44;5049381;28;20049;-74
2021/12/22 09:27:01;;;;;;;80.43;36.42;;;;;;;0.23;nan;101825.66;5031672;28;20402;-74
2021/12/22 09:29:46;;;;;;;77.25;36.08;;;;;;;0.30;nan;101821.63;5043544;28;20095;-73
2021/12/22 09:32:32;;;;;;;78.85;36.13;;;;;;;0.41;nan;101821.59;5035746;28;20041;-73
2021/12/22 09:35:18;;;;;;;82.20;35.47;;;;;;;0.45;nan;101824.75;5038906;28;20041;-73
2021/12/22 09:38:06;;;;;;;71.47;33.47;;;;;;;0.49;nan;101825.34;5036124;28;20033;-72
2021/12/22 09:40:52;;;;;;;75.63;34.05;;;;;;;0.40;nan;101821.72;5038159;28;20037;-73
2021/12/22 09:43:39;;;;;;;74.97;34.88;;;;;;;0.49;nan;101825.34;5039548;28;20045;-73
2021/12/22 09:46:25;;;;;;;70.38;30.77;;;;;;;0.60;nan;101826.13;5038959;28;20033;-72
2021/12/22 09:49:35;;;;;;;93.00;33.83;;;;;;;0.59;nan;101811.50;5037064;28;20033;-74
2021/12/22 09:52:26;;;;;;;71.28;31.38;;;;;;;0.62;nan;101803.50;5050407;28;20449;-74
2021/12/22 09:55:12;;;;;;;66.85;30.75;;;;;;;0.63;nan;101799.13;5040093;28;20068;-71
2021/12/22 09:57:58;;;;;;;55.33;27.38;;;;;;;0.58;nan;101802.09;5037480;28;20037;-74
2021/12/22 10:00:45;;;;;;;56.58;27.52;;;;;;;0.34;nan;101804.06;5037149;28;20398;-75
2021/12/22 10:03:31;;;;;;;62.47;29.23;;;;;;;0.36;nan;101813.38;5033369;28;20045;-75
2021/12/22 10:06:17;;;;;;;65.07;29.83;;;;;;;0.21;nan;101791.25;5036361;28;20112;-75
2021/12/22 10:09:05;;;;;;;65.63;29.75;;;;;;;0.32;nan;101806.78;5050559;28;20033;-75
2021/12/22 10:11:52;;;;;;;65.83;29.50;;;;;;;0.25;nan;101800.44;5038624;28;20156;-73
2021/12/22 10:14:50;;;;;;;52.45;25.48;;;;;;;0.09;nan;101793.06;5033973;28;20033;-74
2021/12/22 10:17:41;;;;;;;56.42;25.90;;;;;;;0.02;nan;101798.84;5038523;28;20490;-75
2021/12/22 10:20:27;;;;;;;63.45;26.65;;;;;;;0.04;nan;101808.16;5048559;28;20049;-76
2021/12/22 10:23:31;;;;;;;63.08;28.50;;;;;;;0.08;nan;101804.38;5051713;28;20541;-75
2021/12/22 10:26:27;;;;;;;56.53;27.52;;;;;;;0.20;nan;101803.41;5049139;28;20037;-74
2021/12/22 10:29:13;;;;;;;65.45;27.40;;;;;;;0.29;nan;101806.19;5047324;28;20047;-74
2021/12/22 10:32:11;;;;;;;67.95;29.90;;;;;;;0.57;nan;101809.97;5053976;28;20028;-74
2021/12/22 10:35:03;;;;;;;58.40;26.65;;;;;;;0.60;nan;101800.19;5053567;28;20056;-71
2021/12/22 10:37:49;;;;;;;51.97;24.77;;;;;;;0.49;nan;101812.38;5050152;28;20028;-71
2021/12/22 10:40:37;;;;;;;59.53;27.63;;;;;;;0.37;nan;101796.06;5043671;28;20037;-71
2021/12/22 10:43:28;;;;;;;59.95;27.83;;;;;;;0.48;nan;101808.97;5041613;28;20073;-71
2021/12/22 10:46:28;;;;;;;58.50;26.40;;;;;;;0.50;nan;101801.88;5047301;28;20407;-71
2021/12/22 10:49:21;;;;;;;62.08;27.33;;;;;;;0.61;nan;101804.41;5062357;28;20029;-70
2021/12/22 10:52:07;;;;;;;54.63;27.02;;;;;;;0.69;nan;101803.78;5042846;28;20072;-70
2021/12/22 10:55:13;;;;;;;59.67;27.23;;;;;;;0.72;nan;101803.56;5048890;28;20498;-71
2021/12/22 10:57:59;;;;;;;59.85;26.60;;;;;;;0.85;nan;101793.00;5036714;28;20127;-74
2021/12/22 11:01:08;;;;;;;68.13;29.65;;;;;;;0.68;nan;101793.56;5039518;28;20033;-74
2021/12/22 11:04:02;;;;;;;67.82;29.90;;;;;;;0.47;nan;101786.56;5039891;28;20045;-75
2021/12/22 11:06:53;;;;;;;55.97;26.85;;;;;;;0.55;nan;101802.34;5040676;28;20495;-72
2021/12/22 11:09:40;;;;;;;50.53;25.90;;;;;;;0.49;nan;101797.66;5037819;28;20492;-73
2021/12/22 11:12:37;;;;;;;60.35;26.08;;;;;;;0.52;nan;101804.34;5046830;28;20064;-72
2021/12/22 11:15:24;;;;;;;53.85;24.60;;;;;;;0.48;nan;101805.53;5047426;28;20033;-74
2021/12/22 11:18:23;;;;;;;49.80;22.42;;;;;;;0.49;nan;101802.81;5037444;28;20573;-74
2021/12/22 11:21:27;;;;;;;49.17;20.55;;;;;;;0.42;nan;101788.72;5051878;28;20064;-74
2021/12/22 11:24:13;;;;;;;49.28;20.42;;;;;;;0.47;nan;101790.94;5052971;28;20063;-72
2021/12/22 11:26:59;;;;;;;46.80;19.42;;;;;;;0.53;nan;101793.88;5046797;28;20502;-74
2021/12/22 11:29:48;;;;;;;42.67;20.95;;;;;;;0.55;nan;101796.31;5053904;28;20041;-74
2021/12/22 11:32:34;;;;;;;46.30;20.60;;;;;;;0.40;nan;101757.75;5053705;28;20503;-74
2021/12/22 11:35:21;;;;;;;48.78;21.52;;;;;;;0.58;nan;101776.16;5035378;28;20039;-76
2021/12/22 11:38:07;;;;;;;55.10;23.27;;;;;;;0.61;nan;101788.88;5041977;28;20051;-74
2021/12/22 11:40:56;;;;;;;48.38;21.85;;;;;;;0.52;nan;101774.06;5050634;28;20801;-74
2021/12/22 11:43:44;;;;;;;56.67;23.10;;;;;;;0.50;nan;101770.78;5037998;28;20396;-75
2021/12/22 11:46:31;;;;;;;48.03;22.50;;;;;;;0.59;nan;101782.16;5040615;28;20037;-74
2021/12/22 11:49:21;;;;;;;49.65;22.70;;;;;;;0.62;nan;101781.91;5039172;28;20040;-73
2021/12/22 11:52:33;;;;;;;52.97;23.20;;;;;;;0.60;nan;101783.84;5040944;28;20564;-72
2021/12/22 11:55:23;;;;;;;52.00;24.52;;;;;;;0.67;nan;101782.38;5039773;28;20037;-74
2021/12/22 11:58:18;;;;;;;51.38;24.02;;;;;;;0.71;nan;101788.13;5048249;28;20075;-75
2021/12/22 12:01:11;;;;;;;50.55;24.08;;;;;;;0.69;nan;101777.06;5043357;28;20037;-74
2021/12/22 12:04:14;;;;;;;46.65;20.77;;;;;;;0.74;nan;101774.91;5035188;28;20132;-74
2021/12/22 12:07:02;;;;;;;38.83;18.90;;;;;;;0.79;nan;101785.72;5038003;28;20033;-76
2021/12/22 12:09:48;;;;;;;43.05;20.02;;;;;;;0.71;nan;101781.16;5033778;28;20037;-75
2021/12/22 12:12:52;;;;;;;41.33;19.27;;;;;;;0.63;nan;101778.38;5034788;28;20037;-76
2021/12/22 12:22:34;;;;;;;44.70;20.58;;;;;;;0.67;nan;101784.97;5040425;28;20037;-74
2021/12/22 12:25:22;;;;;;;44.40;20.92;;;;;;;0.64;nan;101780.84;5043690;28;20033;-76
2021/12/22 12:28:16;;;;;;;47.35;22.10;;;;;;;0.63;nan;101783.56;5050649;28;20036;-77
2021/12/22 12:31:02;;;;;;;44.97;21.60;;;;;;;0.55;nan;101785.94;5047421;28;20032;-75
2021/12/22 12:33:49;;;;;;;42.47;20.48;;;;;;;0.43;nan;101767.03;5039352;28;20041;-75
2021/12/22 12:36:39;;;;;;;44.20;21.15;;;;;;;0.50;nan;101781.13;5044350;28;20052;-76
2021/12/22 12:39:53;;;;;;;44.08;21.35;;;;;;;0.50;nan;101778.53;5035746;28;20025;-76
2021/12/22 12:43:01;;;;;;;42.70;20.42;;;;;;;0.54;nan;101781.72;5045110;28;20041;-77
2021/12/22 12:45:48;;;;;;;43.40;20.15;;;;;;;0.45;nan;101783.28;5044680;28;20029;-76
2021/12/22 12:48:34;;;;;;;37.55;19.30;;;;;;;0.40;nan;101762.09;5046603;28;20087;-76
2021/12/22 12:51:32;;;;;;;40.75;20.20;;;;;;;0.42;nan;101770.59;5055905;28;20036;-77
2021/12/22 12:54:20;;;;;;;42.10;20.88;;;;;;;0.52;nan;101781.84;5052103;28;20037;-77
2021/12/22 12:57:12;;;;;;;40.13;19.13;;;;;;;0.52;nan;101776.66;5055580;28;20179;-77
2021/12/22 13:00:05;;;;;;;38.42;19.27;;;;;;;0.55;nan;101781.59;5054683;28;20039;-76
2021/12/22 13:03:07;;;;;;;37.20;18.92;;;;;;;0.56;nan;101783.25;5048866;28;20041;-77
2021/12/22 13:05:53;;;;;;;42.00;20.20;;;;;;;0.61;nan;101781.09;5047237;28;20040;-76
2021/12/22 13:08:38;;;;;;;44.10;21.85;;;;;;;0.48;nan;101779.63;5045729;28;20033;-77
2021/12/22 13:11:24;;;;;;;45.97;21.55;;;;;;;0.43;nan;101785.16;5052044;28;20040;-76
2021/12/22 13:17:43;;;;;;;47.38;23.08;;;;;;;0.52;nan;101791.38;5053275;28;20403;-77
2021/12/22 13:20:32;;;;;;;52.05;24.85;;;;;;;0.53;nan;101793.06;5052807;28;20043;-77
2021/12/22 13:23:20;;;;;;;62.53;27.40;;;;;;;0.47;nan;101786.56;5034839;28;20043;-78
2021/12/22 13:26:06;;;;;;;69.43;29.17;;;;;;;0.42;nan;101793.91;5043413;28;20044;-78
2021/12/22 13:28:55;;;;;;;61.70;27.52;;;;;;;0.47;nan;101791.75;5049622;28;20384;-78